Time;durP1;ratioP1;P1;durP2;ratioP2;P2;SDS_P1;SDS_P2;PMS_P1;PMS_P2;Temp;Humidity;BMP_temperature;BMP_pressure;BME280_temperature;BME280_humidity;BME280_pressure;Samples;Min_cycle;Max_cycle;Signal;HPM_P1;HPM_P2
2021/11/13 00:00:15;;;;;;;16.00;11.30;;;9.60;69.00;;;;;;4956508;28;20019;-59
2021/11/13 00:02:41;;;;;;;19.02;12.68;;;9.50;69.50;;;;;;4956215;28;20122;-58
2021/11/13 00:05:07;;;;;;;18.42;12.27;;;9.60;69.00;;;;;;4956335;28;20171;-60
2021/11/13 00:07:33;;;;;;;17.42;11.98;;;9.50;68.80;;;;;;4956047;28;20109;-60
2021/11/13 00:09:59;;;;;;;16.38;11.50;;;9.50;69.00;;;;;;4956211;28;20071;-60
2021/11/13 00:12:25;;;;;;;16.70;12.43;;;9.60;68.90;;;;;;4954498;28;20039;-60
2021/11/13 00:14:50;;;;;;;16.88;11.80;;;9.60;68.80;;;;;;4958044;28;20030;-59
2021/11/13 00:17:16;;;;;;;17.35;12.32;;;9.60;68.90;;;;;;4936996;29;20028;-60
2021/11/13 00:19:43;;;;;;;18.70;12.45;;;9.60;68.50;;;;;;4936880;29;20024;-60
2021/11/13 00:22:09;;;;;;;18.20;12.32;;;9.60;68.50;;;;;;4936836;29;20026;-60
2021/11/13 00:24:36;;;;;;;18.98;13.05;;;9.70;68.70;;;;;;4943124;28;20479;-60
2021/11/13 00:27:06;;;;;;;16.80;11.82;;;9.70;68.50;;;;;;4942706;28;20115;-60
2021/11/13 00:29:32;;;;;;;18.05;11.50;;;9.70;68.40;;;;;;4939938;29;20038;-58
2021/11/13 00:31:57;;;;;;;15.93;12.02;;;9.70;68.40;;;;;;4941761;28;20028;-60
2021/11/13 00:34:23;;;;;;;17.02;11.73;;;9.70;68.10;;;;;;4936560;29;20479;-60
2021/11/13 00:36:49;;;;;;;18.10;12.65;;;9.80;68.60;;;;;;4935725;29;20079;-60
2021/11/13 00:39:15;;;;;;;15.85;12.05;;;9.80;67.90;;;;;;4936342;29;20075;-60
2021/11/13 00:41:41;;;;;;;18.67;12.60;;;9.80;67.60;;;;;;4936328;29;20058;-60
2021/11/13 00:44:07;;;;;;;18.00;12.32;;;9.80;67.50;;;;;;4941622;29;20503;-60
2021/11/13 00:46:33;;;;;;;17.20;11.65;;;9.80;67.40;;;;;;4940830;28;20028;-60
2021/11/13 00:48:59;;;;;;;17.65;12.32;;;9.80;67.40;;;;;;4939156;28;20042;-60
2021/11/13 00:51:24;;;;;;;19.15;12.15;;;9.80;67.20;;;;;;4936543;29;20032;-60
2021/11/13 00:53:50;;;;;;;17.63;11.80;;;9.80;67.00;;;;;;4936140;29;20484;-60
2021/11/13 00:56:16;;;;;;;16.77;11.82;;;9.90;67.10;;;;;;4963668;28;20118;-60
2021/11/13 00:58:41;;;;;;;14.48;11.00;;;9.90;67.00;;;;;;4936179;29;20035;-60
2021/11/13 01:01:07;;;;;;;15.10;11.10;;;9.90;67.00;;;;;;4946018;29;20364;-60
2021/11/13 01:03:34;;;;;;;17.20;11.80;;;9.90;66.90;;;;;;4942123;28;20031;-60
2021/11/13 01:06:00;;;;;;;17.17;11.13;;;10.00;67.00;;;;;;4955833;28;20054;-60
2021/11/13 01:08:26;;;;;;;16.58;11.60;;;10.00;66.70;;;;;;4955058;28;20027;-60
2021/11/13 01:10:52;;;;;;;16.80;11.80;;;10.00;66.50;;;;;;4955486;28;20035;-59
2021/11/13 01:13:19;;;;;;;17.88;12.35;;;10.00;66.50;;;;;;4955079;28;20384;-60
2021/11/13 01:15:45;;;;;;;16.58;12.20;;;10.10;66.60;;;;;;4950070;28;20089;-60
2021/11/13 01:18:11;;;;;;;17.20;12.18;;;10.10;66.50;;;;;;4935796;29;20420;-60
2021/11/13 01:20:37;;;;;;;18.40;12.27;;;10.10;66.30;;;;;;4944834;28;20111;-60
2021/11/13 01:23:03;;;;;;;18.30;12.90;;;10.10;66.40;;;;;;4943968;28;20035;-60
2021/11/13 01:25:30;;;;;;;16.58;11.95;;;10.10;66.30;;;;;;4952130;28;20420;-60
2021/11/13 01:27:56;;;;;;;17.50;11.50;;;10.10;66.30;;;;;;4966146;28;20038;-60
2021/11/13 01:30:22;;;;;;;17.15;11.90;;;10.10;66.40;;;;;;4940526;28;20028;-60
2021/11/13 01:32:48;;;;;;;16.55;12.35;;;10.10;66.20;;;;;;4938994;29;20075;-60
2021/11/13 01:35:15;;;;;;;17.05;11.93;;;10.10;66.20;;;;;;4935638;29;20428;-60
2021/11/13 01:37:41;;;;;;;16.33;11.98;;;10.10;66.00;;;;;;4941989;29;20035;-60
2021/11/13 01:40:11;;;;;;;20.00;12.25;;;10.10;66.00;;;;;;4947408;28;20130;-60
2021/11/13 01:42:37;;;;;;;16.65;12.15;;;10.10;66.00;;;;;;4948175;28;20032;-60
2021/11/13 01:45:06;;;;;;;17.27;12.32;;;10.10;66.00;;;;;;4935657;29;20039;-60
2021/11/13 01:47:32;;;;;;;14.55;10.65;;;10.10;65.90;;;;;;4941731;28;20086;-60
2021/11/13 01:49:59;;;;;;;19.35;12.50;;;10.10;65.80;;;;;;4942120;28;20106;-59
2021/11/13 01:52:24;;;;;;;16.88;12.13;;;10.20;65.80;;;;;;4939245;29;20039;-60
2021/11/13 01:54:50;;;;;;;17.65;11.98;;;10.20;65.80;;;;;;4949241;29;20484;-60
2021/11/13 01:57:22;;;;;;;18.35;11.85;;;10.20;65.70;;;;;;4952331;28;20019;-60
2021/11/13 01:59:50;;;;;;;15.95;11.38;;;10.20;65.60;;;;;;4939455;29;20032;-60
2021/11/13 02:02:16;;;;;;;17.67;12.15;;;10.20;65.80;;;;;;4939904;29;20472;-60
2021/11/13 02:04:42;;;;;;;19.30;12.10;;;10.20;65.80;;;;;;4942273;28;20441;-60
2021/11/13 02:07:08;;;;;;;17.98;12.52;;;10.20;65.80;;;;;;4939134;29;20118;-60
2021/11/13 02:09:34;;;;;;;16.15;11.68;;;10.20;65.80;;;;;;4950582;29;20123;-60
2021/11/13 02:11:59;;;;;;;15.68;11.68;;;10.20;65.70;;;;;;4941562;28;20027;-60
2021/11/13 02:14:29;;;;;;;16.90;12.98;;;10.10;65.70;;;;;;4948730;28;20065;-60
2021/11/13 02:16:56;;;;;;;19.02;13.48;;;10.20;65.80;;;;;;4939296;29;20023;-60
2021/11/13 02:19:22;;;;;;;19.48;13.57;;;10.10;65.80;;;;;;4946796;29;20051;-60
2021/11/13 02:21:48;;;;;;;16.27;12.07;;;10.10;65.90;;;;;;4939578;28;20047;-60
2021/11/13 02:24:14;;;;;;;17.45;13.50;;;10.10;65.80;;;;;;4944101;28;20149;-60
2021/11/13 02:26:40;;;;;;;18.33;13.68;;;10.10;65.90;;;;;;4957399;28;20495;-60
2021/11/13 02:29:06;;;;;;;20.38;14.00;;;10.10;66.00;;;;;;4958130;28;20027;-60
2021/11/13 02:31:41;;;;;;;20.48;13.73;;;10.10;66.20;;;;;;4962540;28;20043;-60
2021/11/13 02:34:09;;;;;;;18.35;12.43;;;10.10;66.00;;;;;;4949697;29;20487;-60
2021/11/13 02:36:35;;;;;;;19.50;14.35;;;10.10;66.00;;;;;;4952167;28;20035;-59
2021/11/13 02:39:07;;;;;;;18.77;12.90;;;10.10;66.00;;;;;;4938533;29;20496;-60
2021/11/13 02:41:33;;;;;;;20.50;13.75;;;10.10;66.00;;;;;;4938860;29;20376;-60
2021/11/13 02:44:00;;;;;;;19.00;13.32;;;10.10;66.00;;;;;;4938115;29;20047;-60
2021/11/13 02:46:26;;;;;;;19.27;14.02;;;10.10;66.00;;;;;;4938859;29;20114;-60
2021/11/13 02:48:53;;;;;;;18.15;12.95;;;10.00;65.90;;;;;;4964087;28;20035;-59
2021/11/13 02:51:19;;;;;;;15.15;11.57;;;10.10;66.10;;;;;;4948248;29;20039;-60
2021/11/13 02:53:49;;;;;;;20.00;13.45;;;10.00;65.90;;;;;;4944459;28;20027;-60
2021/11/13 02:56:15;;;;;;;21.52;14.32;;;10.00;66.00;;;;;;4964354;28;20027;-60
2021/11/13 02:58:41;;;;;;;17.98;12.85;;;10.00;66.10;;;;;;4945512;28;20301;-60
2021/11/13 03:01:17;;;;;;;18.40;14.02;;;10.00;66.00;;;;;;4956641;28;20023;-60
2021/11/13 03:03:46;;;;;;;22.50;14.57;;;10.00;65.90;;;;;;4957362;28;20032;-60
2021/11/13 03:06:13;;;;;;;19.63;13.25;;;10.00;66.00;;;;;;4958599;28;20071;-60
2021/11/13 03:08:40;;;;;;;18.35;13.60;;;10.00;66.10;;;;;;4938152;29;20038;-60
2021/11/13 03:11:09;;;;;;;20.05;13.00;;;10.00;66.20;;;;;;4938144;29;20476;-60
2021/11/13 03:13:37;;;;;;;19.00;14.50;;;10.00;66.30;;;;;;4937862;29;20035;-60
2021/11/13 03:16:04;;;;;;;19.73;14.43;;;10.00;66.10;;;;;;4953093;29;20427;-60
2021/11/13 03:18:31;;;;;;;19.48;14.20;;;10.00;66.00;;;;;;4938321;29;20098;-60
2021/11/13 03:20:57;;;;;;;18.92;14.20;;;10.00;66.10;;;;;;4941180;28;20373;-60
2021/11/13 03:23:24;;;;;;;19.85;14.60;;;10.00;66.10;;;;;;4941752;28;20078;-60
2021/11/13 03:25:58;;;;;;;21.70;13.63;;;10.00;66.00;;;;;;4956617;28;20050;-60
2021/11/13 03:28:26;;;;;;;19.13;13.80;;;10.00;66.00;;;;;;4943171;28;20020;-60
2021/11/13 03:30:52;;;;;;;17.58;12.55;;;10.00;65.90;;;;;;4937753;29;20039;-60
2021/11/13 03:33:18;;;;;;;17.13;13.18;;;10.00;65.90;;;;;;4962007;28;20027;-60
2021/11/13 03:35:44;;;;;;;17.83;12.85;;;10.00;65.80;;;;;;4937711;29;20019;-60
2021/11/13 03:38:14;;;;;;;18.20;13.63;;;10.00;65.80;;;;;;4944812;28;20031;-60
2021/11/13 03:40:42;;;;;;;19.75;13.35;;;10.10;65.80;;;;;;4950247;28;20043;-60
2021/11/13 03:43:09;;;;;;;16.75;12.48;;;10.10;65.80;;;;;;4937536;29;20024;-60
2021/11/13 03:45:37;;;;;;;16.48;13.05;;;10.10;65.80;;;;;;4937737;29;20361;-60
2021/11/13 03:48:04;;;;;;;18.80;12.63;;;10.10;65.70;;;;;;4937074;29;20028;-59
2021/11/13 03:50:30;;;;;;;17.17;12.43;;;10.00;65.70;;;;;;4937323;29;20046;-60
2021/11/13 03:52:56;;;;;;;18.77;13.32;;;10.10;65.70;;;;;;4938484;29;20476;-60
2021/11/13 03:55:23;;;;;;;17.58;11.57;;;10.10;65.60;;;;;;4944065;28;20468;-60
2021/11/13 03:57:50;;;;;;;16.50;11.73;;;10.10;65.60;;;;;;4937275;29;20031;-60
2021/11/13 04:00:17;;;;;;;18.13;12.82;;;10.00;65.60;;;;;;4937233;29;20032;-60
2021/11/13 04:02:46;;;;;;;20.10;12.80;;;10.10;65.70;;;;;;4937491;29;20467;-59
2021/11/13 04:05:13;;;;;;;15.77;11.38;;;10.00;65.70;;;;;;4936698;29;20378;-60
2021/11/13 04:07:39;;;;;;;18.95;13.23;;;10.00;65.80;;;;;;4937008;29;20083;-60
2021/11/13 04:10:06;;;;;;;20.35;12.90;;;10.00;65.80;;;;;;4940475;28;20028;-60
2021/11/13 04:12:33;;;;;;;17.23;12.13;;;10.00;65.90;;;;;;4949164;28;20038;-59
2021/11/13 04:15:00;;;;;;;18.58;13.52;;;10.00;66.00;;;;;;4949335;28;20028;-60
2021/11/13 04:17:26;;;;;;;16.08;12.43;;;10.00;66.10;;;;;;4937020;29;20391;-60
2021/11/13 04:19:52;;;;;;;17.20;12.32;;;10.00;66.00;;;;;;4942237;29;20029;-60
2021/11/13 04:22:17;;;;;;;20.27;13.05;;;10.00;66.10;;;;;;4949913;28;20118;-60
2021/11/13 04:24:43;;;;;;;18.73;13.43;;;10.00;66.70;;;;;;4941439;28;20424;-60
2021/11/13 04:27:09;;;;;;;16.95;12.65;;;10.00;66.10;;;;;;4937897;28;20086;-60
2021/11/13 04:29:35;;;;;;;20.65;13.52;;;10.00;66.20;;;;;;4940026;28;20484;-60
2021/11/13 04:32:00;;;;;;;20.98;13.75;;;10.00;66.20;;;;;;4936710;29;20084;-60
2021/11/13 04:34:28;;;;;;;18.73;14.98;;;10.00;66.20;;;;;;4939899;29;20035;-60
2021/11/13 04:36:55;;;;;;;20.92;14.35;;;10.00;66.30;;;;;;4947121;28;20155;-60
2021/11/13 04:39:25;;;;;;;23.02;14.63;;;9.90;66.30;;;;;;4936194;29;20127;-60
2021/11/13 04:41:52;;;;;;;22.13;15.20;;;10.00;66.30;;;;;;4939979;29;20032;-59
2021/11/13 04:44:18;;;;;;;21.90;14.65;;;9.90;66.30;;;;;;4936417;29;20038;-60
2021/11/13 04:46:44;;;;;;;22.30;15.38;;;9.90;66.50;;;;;;4945221;28;20027;-60
2021/11/13 04:49:10;;;;;;;25.00;16.23;;;9.90;66.50;;;;;;4939982;28;20107;-60
2021/11/13 04:51:35;;;;;;;24.88;17.30;;;9.90;66.50;;;;;;4936902;29;20023;-60
2021/11/13 04:54:01;;;;;;;27.15;16.92;;;9.90;66.50;;;;;;4948196;28;20039;-60
2021/11/13 04:56:27;;;;;;;27.17;18.58;;;9.80;66.40;;;;;;4949657;28;20058;-59
2021/11/13 04:58:52;;;;;;;25.77;17.35;;;9.80;66.50;;;;;;4946761;29;20527;-60
2021/11/13 05:01:18;;;;;;;25.83;15.73;;;9.80;66.50;;;;;;4934353;29;20019;-59
2021/11/13 05:03:44;;;;;;;22.90;16.38;;;9.80;66.50;;;;;;4937380;28;20083;-60
2021/11/13 05:06:10;;;;;;;26.08;16.15;;;9.70;66.70;;;;;;4934387;29;20433;-60
2021/11/13 05:08:36;;;;;;;21.92;15.35;;;9.70;66.60;;;;;;4934293;29;20079;-60
2021/11/13 05:11:01;;;;;;;21.60;15.70;;;9.60;66.90;;;;;;4938298;29;20395;-60
2021/11/13 05:13:27;;;;;;;20.98;15.38;;;9.60;66.90;;;;;;4935480;28;20329;-60
2021/11/13 05:15:53;;;;;;;22.15;14.32;;;9.60;66.90;;;;;;4935291;29;20075;-60
2021/11/13 05:18:19;;;;;;;22.45;14.82;;;9.60;67.10;;;;;;4936102;29;20028;-60
2021/11/13 05:20:44;;;;;;;24.80;16.38;;;9.60;67.10;;;;;;4945162;28;20387;-60
2021/11/13 05:23:10;;;;;;;28.55;17.67;;;9.60;67.30;;;;;;4940908;28;20035;-60
2021/11/13 05:25:36;;;;;;;29.73;17.88;;;9.60;67.20;;;;;;4954586;28;20030;-60
2021/11/13 05:28:03;;;;;;;27.83;17.48;;;9.60;67.20;;;;;;4952146;28;20035;-60
2021/11/13 05:30:28;;;;;;;21.38;14.40;;;9.60;67.40;;;;;;4935884;29;20032;-60
2021/11/13 05:32:55;;;;;;;28.17;15.60;;;9.70;67.20;;;;;;4935665;29;20028;-60
2021/11/13 05:35:22;;;;;;;22.13;15.20;;;9.70;67.20;;;;;;4935810;29;20035;-60
2021/11/13 05:37:49;;;;;;;25.35;16.23;;;9.70;67.30;;;;;;4944371;28;20115;-59
2021/11/13 05:40:15;;;;;;;26.10;16.27;;;9.70;67.30;;;;;;4935680;29;20044;-60
2021/11/13 05:42:42;;;;;;;25.05;15.45;;;9.80;67.40;;;;;;4935937;29;20028;-60
2021/11/13 05:45:10;;;;;;;24.65;14.32;;;9.80;67.60;;;;;;4935595;29;20392;-60
2021/11/13 05:47:36;;;;;;;25.02;17.45;;;9.80;67.30;;;;;;4935572;29;20032;-60
2021/11/13 05:50:02;;;;;;;28.10;17.65;;;9.80;67.30;;;;;;4935799;29;20042;-60
2021/11/13 05:52:28;;;;;;;27.52;16.10;;;9.90;67.30;;;;;;4940246;29;20023;-59
2021/11/13 05:54:54;;;;;;;27.92;18.17;;;9.90;67.30;;;;;;4956396;28;20506;-60
2021/11/13 05:57:19;;;;;;;26.00;18.67;;;9.90;67.20;;;;;;4937851;28;20031;-60
2021/11/13 05:59:45;;;;;;;27.40;17.63;;;9.90;67.00;;;;;;4935589;29;20028;-60
2021/11/13 06:02:11;;;;;;;29.13;17.60;;;9.90;67.00;;;;;;4935743;29;20510;-60
2021/11/13 06:04:36;;;;;;;29.23;19.00;;;10.00;67.10;;;;;;4935652;29;20028;-60
2021/11/13 06:07:02;;;;;;;33.75;19.10;;;10.00;67.20;;;;;;4935421;29;20036;-59
2021/11/13 06:09:28;;;;;;;31.15;20.15;;;10.00;67.30;;;;;;4935527;29;20035;-60
2021/11/13 06:11:54;;;;;;;33.50;19.67;;;10.00;67.20;;;;;;4944002;28;20024;-60
2021/11/13 06:14:19;;;;;;;28.20;17.38;;;10.10;67.40;;;;;;4935636;29;20036;-60
2021/11/13 06:16:45;;;;;;;32.13;20.60;;;10.10;67.20;;;;;;4942803;29;20476;-60
2021/11/13 06:19:11;;;;;;;29.92;19.13;;;10.10;67.10;;;;;;4943615;28;20122;-59
2021/11/13 06:21:36;;;;;;;29.08;18.88;;;10.20;67.20;;;;;;4939759;29;20027;-60
2021/11/13 06:24:04;;;;;;;31.55;18.95;;;10.20;67.20;;;;;;4951023;28;20043;-60
2021/11/13 06:26:30;;;;;;;27.80;18.17;;;10.20;67.00;;;;;;4951369;28;20031;-60
2021/11/13 06:28:56;;;;;;;27.38;19.20;;;10.20;66.90;;;;;;4937877;28;20480;-60
2021/11/13 06:31:21;;;;;;;27.00;17.67;;;10.30;66.80;;;;;;4946538;29;20387;-60
2021/11/13 06:33:47;;;;;;;27.63;17.83;;;10.30;66.80;;;;;;4955093;28;20463;-60
2021/11/13 06:36:13;;;;;;;25.77;18.33;;;10.40;66.60;;;;;;4948335;28;20047;-60
2021/11/13 06:38:38;;;;;;;25.85;16.85;;;10.40;66.50;;;;;;4944779;28;20375;-59
2021/11/13 06:41:04;;;;;;;24.88;16.58;;;10.40;66.30;;;;;;4938559;29;20103;-60
2021/11/13 06:43:30;;;;;;;23.38;17.35;;;10.40;66.20;;;;;;4938968;29;20028;-60
2021/11/13 06:45:56;;;;;;;19.63;14.63;;;10.50;66.20;;;;;;4960424;28;20024;-60
2021/11/13 06:48:22;;;;;;;20.85;16.05;;;10.50;66.10;;;;;;4941574;28;20024;-60
2021/11/13 06:50:48;;;;;;;21.95;16.45;;;10.50;66.10;;;;;;4940599;29;20395;-60
2021/11/13 06:53:15;;;;;;;22.23;16.13;;;10.50;65.80;;;;;;4946043;28;20472;-60
2021/11/13 06:55:41;;;;;;;24.90;16.58;;;10.60;66.00;;;;;;4957644;28;20028;-60
2021/11/13 06:58:06;;;;;;;24.67;17.52;;;10.50;65.80;;;;;;4953653;29;20118;-60
2021/11/13 07:00:32;;;;;;;22.88;16.95;;;10.60;65.90;;;;;;4944114;28;20050;-60
2021/11/13 07:03:00;;;;;;;24.45;17.13;;;10.60;65.90;;;;;;4955568;28;20027;-60
2021/11/13 07:05:27;;;;;;;25.38;16.85;;;10.60;65.80;;;;;;4956305;28;20035;-60
2021/11/13 07:07:54;;;;;;;21.92;17.10;;;10.60;65.70;;;;;;4956926;29;20024;-60
2021/11/13 07:10:21;;;;;;;26.75;17.67;;;10.60;65.70;;;;;;4952247;28;20027;-60
2021/11/13 07:12:47;;;;;;;24.90;18.17;;;10.60;65.60;;;;;;4956950;28;20031;-60
2021/11/13 07:15:14;;;;;;;26.17;18.58;;;10.60;65.60;;;;;;4956905;28;20126;-60
2021/11/13 07:17:41;;;;;;;24.85;17.55;;;10.60;65.60;;;;;;4956826;28;20110;-60
2021/11/13 07:20:08;;;;;;;22.42;14.90;;;10.60;65.50;;;;;;4949406;28;20036;-60
2021/11/13 07:22:34;;;;;;;24.52;16.75;;;10.60;65.50;;;;;;4940019;28;20031;-60
2021/11/13 07:24:59;;;;;;;25.10;17.58;;;10.60;65.50;;;;;;4960276;28;20456;-60
2021/11/13 07:27:25;;;;;;;20.95;15.30;;;10.70;65.60;;;;;;4951547;28;20059;-60
2021/11/13 07:30:02;;;;;;;20.08;15.30;;;10.60;65.50;;;;;;4956667;28;20121;-60
2021/11/13 07:32:28;;;;;;;18.60;14.50;;;10.60;65.60;;;;;;4956627;28;20035;-60
2021/11/13 07:34:54;;;;;;;19.15;13.65;;;10.60;65.80;;;;;;4951031;28;20028;-60
2021/11/13 07:37:21;;;;;;;19.25;13.10;;;10.60;65.90;;;;;;4954426;28;20388;-60
2021/11/13 07:39:47;;;;;;;21.23;14.73;;;10.50;66.10;;;;;;4956277;28;20047;-60
2021/11/13 07:42:13;;;;;;;22.73;15.98;;;10.50;66.20;;;;;;4948076;28;20032;-60
2021/11/13 07:44:38;;;;;;;19.98;15.63;;;10.50;66.30;;;;;;4937070;29;20086;-60
2021/11/13 07:47:04;;;;;;;21.80;15.52;;;10.50;66.70;;;;;;4944499;29;20031;-60
2021/11/13 07:49:30;;;;;;;21.48;15.23;;;10.40;66.70;;;;;;4956309;28;20542;-60
2021/11/13 07:51:55;;;;;;;18.70;13.40;;;10.40;66.70;;;;;;4956568;28;20125;-60
2021/11/13 07:54:21;;;;;;;20.00;13.60;;;10.40;66.90;;;;;;4955405;28;20028;-60
2021/11/13 07:56:48;;;;;;;18.15;13.45;;;10.30;66.80;;;;;;4957168;28;20027;-60
2021/11/13 07:59:14;;;;;;;19.50;14.60;;;10.30;66.60;;;;;;4960809;28;20252;-60
2021/11/13 08:01:41;;;;;;;21.95;15.13;;;10.30;66.90;;;;;;4953115;28;20050;-60
2021/11/13 08:04:06;;;;;;;18.15;14.05;;;10.30;67.20;;;;;;4957864;28;20467;-60
2021/11/13 08:06:32;;;;;;;22.58;15.55;;;10.30;67.50;;;;;;4962959;28;20074;-60
2021/11/13 08:08:58;;;;;;;22.75;15.95;;;10.30;67.40;;;;;;4947328;28;20032;-60
2021/11/13 08:11:24;;;;;;;22.05;15.18;;;10.20;67.40;;;;;;4965671;28;20038;-60
2021/11/13 08:13:50;;;;;;;19.60;14.70;;;10.20;67.50;;;;;;4954283;28;20028;-59
2021/11/13 08:16:15;;;;;;;20.20;14.90;;;10.20;67.50;;;;;;4946615;28;20027;-60
2021/11/13 08:18:41;;;;;;;18.00;12.30;;;10.10;67.70;;;;;;4949855;28;20035;-60
2021/11/13 08:21:07;;;;;;;16.13;12.43;;;10.10;67.60;;;;;;4947925;28;20114;-60
2021/11/13 08:23:33;;;;;;;15.30;11.48;;;10.10;67.60;;;;;;4944052;28;20162;-60
2021/11/13 08:25:59;;;;;;;15.85;11.60;;;10.10;67.50;;;;;;4949424;28;20031;-60
2021/11/13 08:28:26;;;;;;;17.70;12.57;;;10.10;67.70;;;;;;4944864;28;20032;-60
2021/11/13 08:30:53;;;;;;;15.77;11.45;;;10.10;67.70;;;;;;4943497;29;20026;-60
2021/11/13 08:33:19;;;;;;;17.88;12.73;;;10.10;68.00;;;;;;4935939;29;20079;-60
2021/11/13 08:35:47;;;;;;;18.90;12.80;;;10.10;68.40;;;;;;4943994;28;20091;-60
2021/11/13 08:38:14;;;;;;;21.42;13.43;;;10.10;68.60;;;;;;4948871;29;20126;-58
2021/11/13 08:40:40;;;;;;;20.45;13.38;;;10.10;68.40;;;;;;4949999;29;20455;-60
2021/11/13 08:43:06;;;;;;;18.50;13.07;;;10.10;68.60;;;;;;4948825;28;20047;-60
2021/11/13 08:45:32;;;;;;;20.88;13.02;;;10.00;68.60;;;;;;4948775;28;20453;-60
2021/11/13 08:47:58;;;;;;;18.00;12.40;;;10.00;68.60;;;;;;4944869;28;20054;-60
2021/11/13 08:50:27;;;;;;;17.52;12.43;;;10.00;68.90;;;;;;4950115;28;20088;-60
2021/11/13 08:52:56;;;;;;;21.45;14.80;;;10.00;68.80;;;;;;4948335;29;20035;-60
2021/11/13 08:55:25;;;;;;;18.63;13.13;;;10.00;68.90;;;;;;4944447;29;20040;-60
2021/11/13 08:57:52;;;;;;;18.85;13.93;;;10.00;69.00;;;;;;4942044;29;20028;-60
2021/11/13 09:00:31;;;;;;;18.80;12.93;;;10.00;69.10;;;;;;4935712;29;20102;-60
2021/11/13 09:02:59;;;;;;;17.00;13.63;;;10.00;69.10;;;;;;4944524;28;20027;-60
2021/11/13 09:05:25;;;;;;;19.40;13.82;;;10.00;69.20;;;;;;4946340;28;20114;-60
2021/11/13 09:07:51;;;;;;;21.38;14.40;;;10.00;69.20;;;;;;4939396;28;20131;-60
2021/11/13 09:10:17;;;;;;;22.23;13.70;;;10.00;69.50;;;;;;4947381;28;20551;-60
2021/11/13 09:12:43;;;;;;;20.40;14.18;;;9.90;69.60;;;;;;4947203;28;20059;-60
2021/11/13 09:15:17;;;;;;;20.90;14.15;;;9.90;69.40;;;;;;4944415;28;20554;-60
2021/11/13 09:17:44;;;;;;;20.00;13.52;;;9.90;69.60;;;;;;4945957;28;20028;-60
2021/11/13 09:20:11;;;;;;;21.88;13.55;;;9.90;69.50;;;;;;4952823;28;20495;-60
2021/11/13 09:22:36;;;;;;;18.23;12.85;;;9.90;69.60;;;;;;4940507;29;20039;-60
2021/11/13 09:25:08;;;;;;;19.90;13.52;;;9.90;69.40;;;;;;4945087;28;20431;-60
2021/11/13 09:27:35;;;;;;;;;;;9.90;69.60;;;;;;4944445;28;20039;-60
2021/11/13 09:30:04;;;;;;;17.65;12.25;;;9.80;69.30;;;;;;4944540;29;19957;-60
2021/11/13 09:32:30;;;;;;;19.85;13.75;;;9.90;70.10;;;;;;4938353;28;20023;-60
2021/11/13 09:34:55;;;;;;;20.90;14.20;;;9.80;69.40;;;;;;4938815;28;20030;-60
2021/11/13 09:37:21;;;;;;;20.80;13.70;;;9.90;69.40;;;;;;4944907;28;20047;-60
2021/11/13 09:39:47;;;;;;;21.85;12.82;;;9.90;69.40;;;;;;4941269;28;20558;-60
2021/11/13 09:42:12;;;;;;;21.15;13.23;;;9.90;69.30;;;;;;4947631;28;20579;-60
2021/11/13 09:44:39;;;;;;;18.83;11.93;;;9.80;69.20;;;;;;4948033;28;20091;-60
2021/11/13 09:47:05;;;;;;;18.83;13.48;;;9.80;69.20;;;;;;4933860;29;20531;-60
2021/11/13 09:49:32;;;;;;;15.65;12.50;;;9.80;69.10;;;;;;4950039;28;20032;-60
2021/11/13 09:51:58;;;;;;;19.60;14.13;;;9.90;69.20;;;;;;4946955;28;20032;-60
2021/11/13 09:54:25;;;;;;;18.45;13.48;;;9.90;69.20;;;;;;4939815;28;20082;-60
2021/11/13 09:56:52;;;;;;;20.42;12.65;;;9.90;69.90;;;;;;4933676;29;20090;-60
2021/11/13 09:59:18;;;;;;;19.25;13.27;;;9.90;69.00;;;;;;4932131;29;20052;-60
2021/11/13 10:01:44;;;;;;;18.75;13.07;;;9.90;69.10;;;;;;4931623;29;20106;-60
2021/11/13 10:04:09;;;;;;;21.73;13.82;;;9.90;69.20;;;;;;4942444;29;20054;-60
2021/11/13 10:06:35;;;;;;;18.73;13.48;;;9.90;69.10;;;;;;4933450;29;20495;-60
2021/11/13 10:09:01;;;;;;;20.27;13.93;;;9.90;69.10;;;;;;4946220;28;20042;-60
2021/11/13 10:11:28;;;;;;;18.48;13.43;;;10.00;69.10;;;;;;4939569;28;20062;-60
2021/11/13 10:13:58;;;;;;;20.65;14.15;;;9.90;68.90;;;;;;4957955;28;20082;-60
2021/11/13 10:16:53;;;;;;;18.53;13.27;;;10.00;68.90;;;;;;4944586;28;20027;-60
2021/11/13 10:19:19;;;;;;;18.35;12.90;;;10.00;68.80;;;;;;4933888;29;20274;-60
2021/11/13 10:21:50;;;;;;;20.90;14.13;;;10.00;68.90;;;;;;4939016;29;20096;-60
2021/11/13 10:24:22;;;;;;;19.65;13.70;;;10.00;68.90;;;;;;4942426;28;20125;-60
2021/11/13 10:26:55;;;;;;;19.98;13.68;;;10.00;68.70;;;;;;4948245;28;20400;-60
2021/11/13 10:29:26;;;;;;;19.42;12.80;;;10.00;68.60;;;;;;4941538;28;20051;-60
2021/11/13 10:31:58;;;;;;;18.05;13.65;;;10.00;68.50;;;;;;4938856;29;20031;-60
2021/11/13 10:34:27;;;;;;;18.30;13.20;;;10.10;68.70;;;;;;4939693;29;20472;-60
2021/11/13 10:36:59;;;;;;;17.63;13.55;;;10.10;68.70;;;;;;4946213;29;20107;-60
2021/11/13 10:39:30;;;;;;;19.67;13.70;;;10.10;68.70;;;;;;4938461;29;20048;-60
2021/11/13 10:42:11;;;;;;;21.50;13.60;;;10.10;68.70;;;;;;4939489;29;20032;-60
2021/11/13 10:44:55;;;;;;;19.53;13.13;;;10.10;68.70;;;;;;4948925;28;20147;-60
2021/11/13 10:47:24;;;;;;;19.40;13.32;;;10.10;68.90;;;;;;4938764;29;20372;-60
2021/11/13 10:49:52;;;;;;;18.90;13.23;;;10.10;68.90;;;;;;4938599;29;20110;-60
2021/11/13 10:52:20;;;;;;;18.92;13.40;;;10.10;69.00;;;;;;4952631;29;20039;-60
2021/11/13 10:54:51;;;;;;;18.38;14.00;;;10.10;69.00;;;;;;4952579;29;20057;-60
2021/11/13 10:57:28;;;;;;;20.05;13.88;;;10.10;68.90;;;;;;4955427;28;20029;-60
2021/11/13 10:59:54;;;;;;;18.58;13.50;;;10.10;69.00;;;;;;4940638;28;20039;-60
2021/11/13 11:02:23;;;;;;;19.98;12.95;;;10.10;69.00;;;;;;4942824;28;20046;-60
2021/11/13 11:04:49;;;;;;;20.40;14.82;;;10.10;68.90;;;;;;4938317;29;20030;-60
2021/11/13 11:07:23;;;;;;;21.23;13.98;;;10.10;68.90;;;;;;4941678;29;20032;-59
2021/11/13 11:10:08;;;;;;;19.52;13.48;;;10.10;68.70;;;;;;4938458;29;20039;-60
2021/11/13 11:12:36;;;;;;;16.00;12.02;;;10.20;68.80;;;;;;4942092;29;20392;-60
2021/11/13 11:15:08;;;;;;;18.98;12.20;;;10.20;68.40;;;;;;4946015;28;20032;-60
2021/11/13 11:17:34;;;;;;;15.00;11.13;;;10.20;68.20;;;;;;4940821;28;20016;-60
2021/11/13 11:20:15;;;;;;;15.95;11.45;;;10.20;68.10;;;;;;4937647;29;20083;-60
2021/11/13 11:22:41;;;;;;;17.13;12.18;;;10.30;67.90;;;;;;4946542;29;20023;-60
2021/11/13 11:25:12;;;;;;;16.17;11.15;;;10.30;67.90;;;;;;4945897;28;20032;-60
2021/11/13 11:27:40;;;;;;;17.80;12.45;;;10.30;67.70;;;;;;4938202;29;20034;-60
2021/11/13 11:30:15;;;;;;;18.27;12.30;;;10.30;67.70;;;;;;4947183;28;20028;-60
2021/11/13 11:32:40;;;;;;;17.45;11.75;;;10.40;67.70;;;;;;4937584;29;20424;-60
2021/11/13 11:35:21;;;;;;;16.90;12.07;;;10.40;67.80;;;;;;4939782;28;20087;-60
2021/11/13 11:37:56;;;;;;;15.50;12.00;;;10.40;67.80;;;;;;4937823;29;20361;-60
2021/11/13 11:40:43;;;;;;;17.33;12.50;;;10.40;67.60;;;;;;4937665;29;20071;-60
2021/11/13 11:43:10;;;;;;;13.70;9.88;;;10.40;67.50;;;;;;4940215;29;20047;-60
2021/11/13 11:45:38;;;;;;;16.00;11.95;;;10.40;67.70;;;;;;4947437;28;20066;-60
2021/11/13 11:48:09;;;;;;;15.05;10.40;;;10.40;67.50;;;;;;4938146;28;20028;-60
2021/11/13 11:50:37;;;;;;;16.73;12.13;;;10.40;67.50;;;;;;4955861;28;20027;-59
2021/11/13 11:53:10;;;;;;;15.65;12.45;;;10.40;67.60;;;;;;4943543;28;20645;-59
2021/11/13 11:55:40;;;;;;;17.80;12.73;;;10.40;67.60;;;;;;4956435;28;20035;-60
2021/11/13 11:58:11;;;;;;;23.60;13.23;;;10.40;67.50;;;;;;4956407;28;20641;-60
2021/11/13 12:00:38;;;;;;;17.58;12.57;;;10.40;67.40;;;;;;4955075;28;20058;-58
2021/11/13 12:03:05;;;;;;;17.88;12.25;;;10.40;67.40;;;;;;4956666;28;20050;-60
2021/11/13 12:05:36;;;;;;;17.40;12.13;;;10.40;67.30;;;;;;4956403;28;20109;-60
2021/11/13 12:08:23;;;;;;;21.13;11.38;;;10.40;67.30;;;;;;4958331;28;20055;-60
2021/11/13 12:10:50;;;;;;;30.55;11.63;;;10.40;67.30;;;;;;4949730;28;20040;-60
2021/11/13 12:13:25;;;;;;;16.15;11.00;;;10.40;67.30;;;;;;4943302;28;20118;-58
2021/11/13 12:16:03;;;;;;;16.52;11.38;;;10.40;67.20;;;;;;4942740;28;20042;-60
2021/11/13 12:18:30;;;;;;;15.38;11.50;;;10.40;67.20;;;;;;4940566;29;20019;-60
2021/11/13 12:21:04;;;;;;;20.25;13.55;;;10.40;67.40;;;;;;4941185;28;20024;-60
2021/11/13 12:23:33;;;;;;;19.75;12.68;;;10.40;67.50;;;;;;4949620;29;20555;-60
2021/11/13 12:26:05;;;;;;;18.35;11.32;;;10.40;67.60;;;;;;4938791;28;20019;-59
2021/11/13 12:28:34;;;;;;;16.90;11.77;;;10.40;67.50;;;;;;4936745;29;20459;-60
2021/11/13 12:31:06;;;;;;;17.60;11.40;;;10.50;67.60;;;;;;4936748;29;20106;-60